createdAt,value
2023-03-15T00:01:46.699Z,39.30
2023-03-15T00:04:16.119Z,41.00
2023-03-15T00:06:45.149Z,37.03
2023-03-15T00:09:16.859Z,35.23
2023-03-15T00:11:50.183Z,32.57
2023-03-15T00:14:21.138Z,34.07
2023-03-15T00:16:50.108Z,29.90
2023-03-15T00:19:18.711Z,39.43
2023-03-15T00:21:47.196Z,36.23
2023-03-15T00:24:15.974Z,41.67
2023-03-15T00:26:44.592Z,39.70
2023-03-15T00:29:13.127Z,34.70
2023-03-15T00:31:43.202Z,34.83
2023-03-15T00:34:14.123Z,33.80
2023-03-15T00:36:43.804Z,28.77
2023-03-15T00:39:15.882Z,31.87
2023-03-15T00:41:45.982Z,32.97
2023-03-15T00:44:14.926Z,32.60
2023-03-15T00:46:45.051Z,34.63
2023-03-15T00:49:17.487Z,29.67
2023-03-15T00:51:46.285Z,26.03
2023-03-15T00:54:15.168Z,32.87
2023-03-15T00:56:43.749Z,17.20
2023-03-15T00:59:12.637Z,21.20
2023-03-15T01:01:44.923Z,22.47
2023-03-15T01:04:15.585Z,24.13
2023-03-15T01:06:48.221Z,18.33
2023-03-15T01:09:16.754Z,14.60
2023-03-15T01:11:45.372Z,11.33
2023-03-15T01:14:13.947Z,15.47
2023-03-15T01:16:42.618Z,14.10
2023-03-15T01:19:11.178Z,17.83
2023-03-15T01:21:41.687Z,21.67
2023-03-15T01:24:14.733Z,32.60
2023-03-15T01:26:43.625Z,46.93
2023-03-15T01:29:13.974Z,30.13
2023-03-15T01:31:42.577Z,49.47
2023-03-15T01:34:11.744Z,31.27
2023-03-15T01:36:41.750Z,26.27
2023-03-15T01:39:10.415Z,18.80
2023-03-15T01:41:39.209Z,24.03
2023-03-15T01:44:10.836Z,23.40
2023-03-15T01:46:39.421Z,25.60
2023-03-15T01:49:10.059Z,29.30
2023-03-15T01:51:44.438Z,28.87
2023-03-15T01:54:18.224Z,22.73
2023-03-15T01:56:54.005Z,28.97
2023-03-15T01:59:27.172Z,29.20
2023-03-15T02:01:56.533Z,30.37
2023-03-15T02:04:31.678Z,27.23
2023-03-15T02:07:03.929Z,29.57
2023-03-15T02:09:43.265Z,28.43
2023-03-15T02:12:12.750Z,27.27
2023-03-15T02:14:42.551Z,21.87
2023-03-15T02:17:18.682Z,25.17
2023-03-15T02:19:55.973Z,19.13
2023-03-15T02:22:38.035Z,23.00
2023-03-15T02:25:18.232Z,21.17
2023-03-15T02:27:49.547Z,18.67
2023-03-15T02:30:21.075Z,23.43
2023-03-15T02:32:50.120Z,24.53
2023-03-15T02:35:25.994Z,23.37
2023-03-15T02:37:59.658Z,22.43
2023-03-15T02:40:30.299Z,22.30
2023-03-15T02:43:06.152Z,26.50
2023-03-15T02:45:37.227Z,22.73
2023-03-15T02:48:08.056Z,24.00
2023-03-15T02:50:36.837Z,20.75
2023-03-15T02:53:06.003Z,17.67
2023-03-15T02:55:34.723Z,31.97
2023-03-15T02:58:04.751Z,28.57
2023-03-15T03:00:33.299Z,31.67
2023-03-15T03:03:01.897Z,27.83
2023-03-15T03:05:30.774Z,27.50
2023-03-15T03:07:59.435Z,29.37
2023-03-15T03:10:29.289Z,31.47
2023-03-15T03:12:58.996Z,29.90
2023-03-15T03:15:29.121Z,36.70
2023-03-15T03:17:57.714Z,32.73
2023-03-15T03:20:27.424Z,33.23
2023-03-15T03:22:56.916Z,31.20
2023-03-15T03:25:27.527Z,44.20
2023-03-15T03:27:57.575Z,30.33
2023-03-15T03:30:26.213Z,30.90
2023-03-15T03:32:56.404Z,42.97
2023-03-15T03:35:25.872Z,36.80
2023-03-15T03:37:55.202Z,28.70
2023-03-15T03:40:24.681Z,31.20
2023-03-15T03:42:53.177Z,25.50
2023-03-15T03:45:21.819Z,41.90
2023-03-15T03:47:51.884Z,29.23
2023-03-15T03:50:22.445Z,48.83
2023-03-15T03:52:51.109Z,31.50
2023-03-15T03:55:20.558Z,28.67
2023-03-15T03:57:51.212Z,27.30
2023-03-15T04:00:22.437Z,30.80
2023-03-15T04:02:55.749Z,30.80
2023-03-15T04:05:25.879Z,32.23
2023-03-15T04:07:54.558Z,35.20
2023-03-15T04:10:27.175Z,33.47
2023-03-15T04:12:56.601Z,30.40
2023-03-15T04:15:25.682Z,38.73
2023-03-15T04:17:56.426Z,33.40
2023-03-15T04:20:27.970Z,24.03
2023-03-15T04:22:56.480Z,32.67
2023-03-15T04:25:26.959Z,29.20
2023-03-15T04:27:59.938Z,35.73
2023-03-15T04:30:29.016Z,32.80
2023-03-15T04:33:00.182Z,34.23
2023-03-15T04:35:31.981Z,34.80
2023-03-15T04:38:00.640Z,37.53
2023-03-15T04:40:29.418Z,38.47
2023-03-15T04:42:58.456Z,33.07
2023-03-15T04:45:29.079Z,39.93
2023-03-15T04:47:57.648Z,32.63
2023-03-15T04:50:26.620Z,52.00
2023-03-15T04:52:56.779Z,29.07
2023-03-15T04:55:25.448Z,53.67
2023-03-15T04:57:54.035Z,36.67
2023-03-15T05:00:23.471Z,43.73
2023-03-15T05:02:55.153Z,35.17
2023-03-15T05:05:25.329Z,38.23
2023-03-15T05:07:55.451Z,47.17
2023-03-15T05:10:24.015Z,45.97
2023-03-15T05:12:52.670Z,55.93
2023-03-15T05:15:21.256Z,63.53
2023-03-15T05:17:50.111Z,44.93
2023-03-15T05:20:19.256Z,7.43
2023-03-15T05:22:47.868Z,14.87
2023-03-15T05:25:17.927Z,13.57
2023-03-15T05:27:47.364Z,20.03
2023-03-15T05:30:17.140Z,26.33
2023-03-15T05:32:46.019Z,38.80
2023-03-15T05:35:14.931Z,54.47
2023-03-15T05:37:43.768Z,70.33
2023-03-15T05:40:13.486Z,82.00
2023-03-15T05:42:43.746Z,82.77
2023-03-15T05:45:12.913Z,45.90
2023-03-15T05:47:41.421Z,63.67
2023-03-15T05:50:10.946Z,9.43
2023-03-15T05:52:39.870Z,16.90
2023-03-15T05:55:08.858Z,51.53
2023-03-15T05:57:37.430Z,40.65
2023-03-15T06:00:10.560Z,21.57
2023-03-15T06:02:39.158Z,91.03
2023-03-15T06:05:08.424Z,83.60
2023-03-15T06:07:37.174Z,91.90
2023-03-15T06:10:07.019Z,88.30
2023-03-15T06:12:36.631Z,88.57
2023-03-15T06:15:07.482Z,13.98
2023-03-15T06:17:36.283Z,19.03
2023-03-15T06:20:05.288Z,24.30
2023-03-15T06:22:34.252Z,52.13
2023-03-15T06:25:03.782Z,68.57
2023-03-15T06:27:33.515Z,77.87
2023-03-15T06:30:02.334Z,80.90
2023-03-15T06:32:32.668Z,62.47
2023-03-15T06:35:01.195Z,63.57
2023-03-15T06:37:35.456Z,83.10
2023-03-15T06:40:07.415Z,55.93
2023-03-15T06:42:36.479Z,57.63
2023-03-15T06:45:05.825Z,53.67
2023-03-15T06:47:36.300Z,32.63
2023-03-15T06:50:05.178Z,28.13
2023-03-15T06:52:33.708Z,26.03
2023-03-15T06:55:02.451Z,33.80
2023-03-15T06:57:31.162Z,55.77
2023-03-15T06:59:59.677Z,23.40
2023-03-15T07:02:28.368Z,30.17
2023-03-15T07:04:58.388Z,24.37
2023-03-15T07:07:26.925Z,19.57
2023-03-15T07:09:55.464Z,19.10
2023-03-15T07:12:23.977Z,18.67
2023-03-15T07:14:52.705Z,25.53
2023-03-15T07:17:21.607Z,22.40
2023-03-15T07:19:56.680Z,22.57
2023-03-15T07:22:27.239Z,31.83
2023-03-15T07:24:55.851Z,22.73
2023-03-15T07:27:24.371Z,48.93
2023-03-15T07:29:53.009Z,45.10
2023-03-15T07:32:21.547Z,21.17
2023-03-15T07:34:50.089Z,47.63
2023-03-15T07:37:19.013Z,53.87
2023-03-15T07:39:48.983Z,69.10
2023-03-15T07:42:17.630Z,86.60
2023-03-15T07:44:46.358Z,74.10
2023-03-15T07:47:15.007Z,86.00
2023-03-15T07:49:43.648Z,10.27
2023-03-15T07:52:12.651Z,12.70
2023-03-15T07:54:41.194Z,37.10
2023-03-15T07:57:11.870Z,76.47
2023-03-15T07:59:40.595Z,84.70
2023-03-15T08:02:11.319Z,69.23
2023-03-15T08:04:41.428Z,70.57
2023-03-15T08:07:10.180Z,77.00
2023-03-15T08:09:39.977Z,74.27
2023-03-15T08:12:10.557Z,79.43
2023-03-15T08:14:39.036Z,77.73
2023-03-15T08:18:00.507Z,97.90
2023-03-15T08:20:29.970Z,88.47
2023-03-15T08:22:59.385Z,57.13
2023-03-15T08:25:28.134Z,78.13
2023-03-15T08:27:58.101Z,63.60
2023-03-15T08:30:26.831Z,75.33
2023-03-15T08:32:57.022Z,68.47
2023-03-15T08:35:26.014Z,87.20
2023-03-15T08:37:54.569Z,91.07
2023-03-15T08:40:26.036Z,67.77
2023-03-15T08:42:55.433Z,101.67
2023-03-15T08:45:26.386Z,82.83
2023-03-15T08:47:57.072Z,89.73
2023-03-15T08:50:26.107Z,59.43
2023-03-15T08:52:54.762Z,68.27
2023-03-15T08:55:23.501Z,65.87
2023-03-15T08:57:52.178Z,51.23
2023-03-15T09:00:23.205Z,35.20
2023-03-15T09:02:53.824Z,23.50
2023-03-15T09:05:24.452Z,38.43
2023-03-15T09:07:53.945Z,51.17
2023-03-15T09:10:22.833Z,14.20
2023-03-15T09:12:54.835Z,15.73
2023-03-15T09:15:23.451Z,15.63
2023-03-15T09:17:53.671Z,20.87
2023-03-15T09:20:28.420Z,19.00
2023-03-15T09:22:58.543Z,17.97
2023-03-15T09:25:28.308Z,18.73
2023-03-15T09:27:57.469Z,13.67
2023-03-15T09:30:26.215Z,13.73
2023-03-15T09:32:58.752Z,17.43
2023-03-15T09:35:27.774Z,14.00
2023-03-15T09:38:07.162Z,16.20
2023-03-15T09:40:40.162Z,25.37
2023-03-15T09:43:26.998Z,20.33
2023-03-15T09:46:07.658Z,21.50
2023-03-15T09:48:43.462Z,16.87
2023-03-15T09:51:16.539Z,22.87
2023-03-15T09:53:52.218Z,13.13
2023-03-15T09:56:26.578Z,15.63
2023-03-15T09:58:59.420Z,29.83
2023-03-15T10:01:32.686Z,16.83
2023-03-15T10:04:07.992Z,46.43
2023-03-15T10:06:39.052Z,19.37
2023-03-15T10:09:17.609Z,27.27
2023-03-15T10:11:54.989Z,76.20
2023-03-15T10:14:34.118Z,86.80
2023-03-15T10:17:07.130Z,92.67
2023-03-15T10:19:46.132Z,91.60
2023-03-15T10:22:22.841Z,88.60
2023-03-15T10:24:54.982Z,65.10
2023-03-15T10:27:27.353Z,67.80
2023-03-15T10:29:59.077Z,69.03
2023-03-15T10:32:31.600Z,97.40
2023-03-15T10:35:12.552Z,82.93
2023-03-15T10:37:42.879Z,63.80
2023-03-15T10:40:16.127Z,57.97
2023-03-15T10:42:45.972Z,83.90
2023-03-15T10:45:22.224Z,23.58
2023-03-15T10:48:00.306Z,17.58
2023-03-15T10:50:36.091Z,15.67
2023-03-15T10:53:20.911Z,22.07
2023-03-15T10:55:58.950Z,45.57
2023-03-15T10:58:31.650Z,54.53
2023-03-15T11:01:07.664Z,66.87
2023-03-15T11:03:37.622Z,94.87
2023-03-15T11:06:21.584Z,60.97
2023-03-15T11:08:50.280Z,116.47
2023-03-15T11:11:22.194Z,90.00
2023-03-15T11:14:00.956Z,67.07
2023-03-15T11:16:37.082Z,106.70
2023-03-15T11:19:15.207Z,37.80
2023-03-15T11:21:48.168Z,24.47
2023-03-15T11:24:26.105Z,19.73
2023-03-15T11:26:56.935Z,22.40
2023-03-15T11:29:28.325Z,16.20
2023-03-15T11:31:58.299Z,18.93
2023-03-15T11:34:40.671Z,19.63
2023-03-15T11:37:17.312Z,21.37
2023-03-15T11:40:05.074Z,20.47
2023-03-15T11:42:45.991Z,29.27
2023-03-15T11:45:21.738Z,43.43
2023-03-15T11:47:55.882Z,70.57
2023-03-15T11:50:24.824Z,45.00
2023-03-15T11:52:55.301Z,45.30
2023-03-15T11:55:28.004Z,29.17
2023-03-15T11:57:58.102Z,54.80
2023-03-15T12:00:51.647Z,20.67
2023-03-15T12:03:43.040Z,50.50
2023-03-15T12:06:39.461Z,49.43
2023-03-15T12:09:51.146Z,48.50
2023-03-15T12:12:47.136Z,37.30
2023-03-15T12:15:49.551Z,29.30
2023-03-15T12:18:35.141Z,27.97
2023-03-15T12:21:23.707Z,25.23
2023-03-15T12:24:04.166Z,22.83
2023-03-15T12:26:44.512Z,25.53
2023-03-15T12:29:18.534Z,31.83
2023-03-15T12:31:57.498Z,19.87
2023-03-15T12:34:37.986Z,18.87
2023-03-15T12:41:30.702Z,74.53
2023-03-15T12:44:28.163Z,36.17
2023-03-15T12:47:05.225Z,101.07
2023-03-15T12:49:39.068Z,26.67
2023-03-15T12:52:29.326Z,24.20
2023-03-15T12:55:06.940Z,25.47
2023-03-15T12:57:41.600Z,44.87
2023-03-15T13:00:20.794Z,52.03
2023-03-15T13:02:55.274Z,86.13
2023-03-15T13:05:32.010Z,47.10
2023-03-15T13:08:22.786Z,26.60
2023-03-15T13:11:17.433Z,31.37
2023-03-15T13:14:04.265Z,37.97
2023-03-15T13:16:48.604Z,22.97
2023-03-15T13:19:23.207Z,38.87
2023-03-15T13:22:04.454Z,57.17
2023-03-15T13:24:43.612Z,41.83
2023-03-15T13:27:23.693Z,81.67
2023-03-15T13:29:53.210Z,85.43
2023-03-15T13:32:26.873Z,52.50
2023-03-15T13:34:59.616Z,50.60
2023-03-15T13:37:34.205Z,99.30
2023-03-15T13:40:16.388Z,55.97
2023-03-15T13:42:47.417Z,45.17
2023-03-15T13:45:18.060Z,44.43
2023-03-15T13:47:49.092Z,57.60
2023-03-15T13:50:19.780Z,54.20
2023-03-15T13:52:50.495Z,25.00
2023-03-15T13:55:25.590Z,67.50
2023-03-15T13:57:58.782Z,18.13
2023-03-15T14:00:28.772Z,34.70
2023-03-15T14:03:03.319Z,48.00
2023-03-15T14:05:35.021Z,57.63
2023-03-15T14:08:06.674Z,50.53
2023-03-15T14:10:47.562Z,52.43
2023-03-15T14:13:26.255Z,54.97
2023-03-15T14:15:59.448Z,20.67
2023-03-15T14:18:33.728Z,56.20
2023-03-15T14:21:05.302Z,73.10
2023-03-15T14:23:37.010Z,62.37
2023-03-15T14:26:13.850Z,21.37
2023-03-15T14:28:43.870Z,24.60
2023-03-15T14:31:24.691Z,19.40
2023-03-15T14:34:01.238Z,45.13
2023-03-15T14:36:35.950Z,124.53
2023-03-15T14:39:06.474Z,125.23
2023-03-15T14:41:35.567Z,139.83
2023-03-15T14:44:04.777Z,146.27
2023-03-15T14:46:34.037Z,121.53
2023-03-15T14:49:04.416Z,95.57
2023-03-15T14:51:34.162Z,88.10
2023-03-15T14:54:03.185Z,94.67
2023-03-15T14:56:32.393Z,84.90
2023-03-15T14:59:03.347Z,78.57
2023-03-15T15:01:33.079Z,77.27
2023-03-15T15:04:07.177Z,71.53
2023-03-15T15:06:38.475Z,56.90
2023-03-15T15:09:07.920Z,56.27
2023-03-15T15:11:36.711Z,76.10
2023-03-15T15:14:05.748Z,82.03
2023-03-15T15:16:34.767Z,54.03
2023-03-15T15:19:05.112Z,30.70
2023-03-15T15:21:38.860Z,26.90
2023-03-15T15:24:20.358Z,40.27
2023-03-15T15:26:49.703Z,43.97
2023-03-15T15:29:19.043Z,50.60
2023-03-15T15:31:49.988Z,50.60
2023-03-15T15:34:23.530Z,32.47
2023-03-15T15:36:54.134Z,56.27
2023-03-15T15:39:25.271Z,79.13
2023-03-15T15:41:54.314Z,68.57
2023-03-15T15:44:24.148Z,84.70
2023-03-15T15:46:52.903Z,101.60
2023-03-15T15:49:21.681Z,100.37
2023-03-15T15:51:52.464Z,100.10
2023-03-15T15:54:30.176Z,91.27
2023-03-15T15:57:00.305Z,81.10
2023-03-15T15:59:31.414Z,110.70
2023-03-15T16:02:02.662Z,107.00
2023-03-15T16:04:33.245Z,116.37
2023-03-15T16:07:05.200Z,84.87
2023-03-15T16:09:38.255Z,122.33
2023-03-15T16:12:15.216Z,145.83
2023-03-15T16:14:46.556Z,136.00
2023-03-15T16:17:18.845Z,135.43
2023-03-15T16:19:48.063Z,135.50
2023-03-15T16:22:21.181Z,139.43
2023-03-15T16:24:54.115Z,15.20
2023-03-15T16:27:27.397Z,17.67
2023-03-15T16:29:57.531Z,49.37
2023-03-15T16:32:43.064Z,77.23
2023-03-15T16:35:25.345Z,103.03
2023-03-15T16:37:58.659Z,104.50
2023-03-15T16:40:41.116Z,107.90
2023-03-15T16:43:15.423Z,92.47
2023-03-15T16:45:58.199Z,90.70
2023-03-15T16:48:27.030Z,101.10
2023-03-15T16:50:56.378Z,97.50
2023-03-15T16:53:26.669Z,90.00
2023-03-15T16:55:58.361Z,67.30
2023-03-15T16:58:27.312Z,97.00
2023-03-15T17:00:59.514Z,61.97
2023-03-15T17:03:30.347Z,57.27
2023-03-15T17:05:59.664Z,63.67
2023-03-15T17:08:30.248Z,54.57
2023-03-15T17:10:59.313Z,61.43
2023-03-15T17:13:30.637Z,80.93
2023-03-15T17:16:00.417Z,74.07
2023-03-15T17:18:30.417Z,90.37
2023-03-15T17:21:02.082Z,83.03
2023-03-15T17:23:32.926Z,86.13
2023-03-15T17:26:03.075Z,100.90
2023-03-15T17:28:32.044Z,85.90
2023-03-15T17:31:23.309Z,94.77
2023-03-15T17:33:55.496Z,69.33
2023-03-15T17:36:26.770Z,64.87
2023-03-15T17:38:57.499Z,62.23
2023-03-15T17:41:37.589Z,32.28
2023-03-15T17:44:13.564Z,58.37
2023-03-15T17:46:43.273Z,101.20
2023-03-15T17:49:14.678Z,152.80
2023-03-15T17:51:48.458Z,243.37
2023-03-15T17:54:26.087Z,409.47
2023-03-15T17:56:57.372Z,414.43
2023-03-15T17:59:26.543Z,277.07
2023-03-15T18:01:55.925Z,236.77
2023-03-15T18:04:25.245Z,298.67
2023-03-15T18:06:56.653Z,241.50
2023-03-15T18:09:32.690Z,152.83
2023-03-15T18:12:03.639Z,147.30
2023-03-15T18:14:37.668Z,90.67
2023-03-15T18:17:07.031Z,119.87
2023-03-15T18:19:39.226Z,113.63
2023-03-15T18:22:08.424Z,94.97
2023-03-15T18:24:39.085Z,87.90
2023-03-15T18:27:08.301Z,77.30
2023-03-15T18:29:37.903Z,76.20
2023-03-15T18:32:28.417Z,68.60
2023-03-15T18:34:57.644Z,62.23
2023-03-15T18:37:26.732Z,68.13
2023-03-15T18:39:57.422Z,69.07
2023-03-15T18:42:30.043Z,65.77
2023-03-15T18:45:03.861Z,61.27
2023-03-15T18:47:32.743Z,66.47
2023-03-15T18:50:10.128Z,68.20
2023-03-15T18:52:39.959Z,64.80
2023-03-15T18:55:53.254Z,68.63
2023-03-15T18:58:35.527Z,64.47
2023-03-15T19:01:12.376Z,66.70
2023-03-15T19:03:46.636Z,69.90
2023-03-15T19:06:16.532Z,63.77
2023-03-15T19:08:45.521Z,72.50
2023-03-15T19:11:15.876Z,73.60
2023-03-15T19:13:51.274Z,67.90
2023-03-15T19:16:20.975Z,64.40
2023-03-15T19:18:53.739Z,71.20
2023-03-15T19:21:22.441Z,73.53
2023-03-15T19:23:52.643Z,68.33
2023-03-15T19:26:22.999Z,64.20
2023-03-15T19:28:51.589Z,64.60
2023-03-15T19:31:20.390Z,61.47
2023-03-15T19:33:49.186Z,67.40
2023-03-15T19:36:17.992Z,69.77
2023-03-15T19:38:46.964Z,63.97
2023-03-15T19:41:15.966Z,60.43
2023-03-15T19:43:46.847Z,65.87
2023-03-15T19:46:17.736Z,73.03
2023-03-15T19:48:46.281Z,81.93
2023-03-15T19:51:16.737Z,63.70
2023-03-15T19:53:45.410Z,71.53
2023-03-15T19:56:14.336Z,66.80
2023-03-15T19:58:43.010Z,61.17
2023-03-15T20:01:13.275Z,57.50
2023-03-15T20:03:41.995Z,54.93
2023-03-15T20:06:12.773Z,46.60
2023-03-15T20:08:41.974Z,56.63
2023-03-15T20:11:15.023Z,52.33
2023-03-15T20:13:44.228Z,55.00
2023-03-15T20:16:16.177Z,49.77
2023-03-15T20:18:44.837Z,50.40
2023-03-15T20:21:14.923Z,53.67
2023-03-15T20:23:43.739Z,49.20
2023-03-15T20:26:14.575Z,47.57
2023-03-15T20:28:44.549Z,50.60
2023-03-15T20:31:17.392Z,53.47
2023-03-15T20:33:48.952Z,55.83
2023-03-15T20:36:18.232Z,52.43
2023-03-15T20:38:47.508Z,57.77
2023-03-15T20:41:18.870Z,46.13
2023-03-15T20:43:47.761Z,40.53
2023-03-15T20:46:19.450Z,44.07
2023-03-15T20:48:48.207Z,42.43
2023-03-15T20:51:16.826Z,42.57
2023-03-15T20:53:45.657Z,44.30
2023-03-15T20:56:14.411Z,43.47
2023-03-15T20:58:43.047Z,46.53
2023-03-15T21:01:15.168Z,52.87
2023-03-15T21:03:46.405Z,50.13
2023-03-15T21:06:15.239Z,52.80
2023-03-15T21:08:44.345Z,47.30
2023-03-15T21:11:12.994Z,43.37
2023-03-15T21:13:41.548Z,44.73
2023-03-15T21:16:10.156Z,42.73
2023-03-15T21:18:38.838Z,61.00
2023-03-15T21:21:09.388Z,55.03
2023-03-15T21:23:38.292Z,49.20
2023-03-15T21:26:09.820Z,43.17
2023-03-15T21:28:39.097Z,40.30
2023-03-15T21:31:08.922Z,36.47
2023-03-15T21:33:37.765Z,31.13
2023-03-15T21:36:06.680Z,41.03
2023-03-15T21:38:36.593Z,40.27
2023-03-15T21:41:11.640Z,34.97
2023-03-15T21:43:40.433Z,36.40
2023-03-15T21:46:11.142Z,37.80
2023-03-15T21:48:39.940Z,35.40
2023-03-15T21:51:08.978Z,37.20
2023-03-15T21:53:39.120Z,36.28
2023-03-15T21:56:08.555Z,37.40
2023-03-15T21:58:37.152Z,62.07
2023-03-15T22:01:13.211Z,53.27
2023-03-15T22:03:44.405Z,47.07
2023-03-15T22:06:13.803Z,34.50
2023-03-15T22:08:43.891Z,37.03
2023-03-15T22:11:12.523Z,46.93
2023-03-15T22:13:42.079Z,68.33
2023-03-15T22:16:11.539Z,70.30
2023-03-15T22:18:40.200Z,52.27
2023-03-15T22:21:08.972Z,56.43
2023-03-15T22:23:37.570Z,62.90
2023-03-15T22:26:08.212Z,57.07
2023-03-15T22:28:36.831Z,48.63
2023-03-15T22:31:11.165Z,42.40
2023-03-15T22:33:43.367Z,41.53
2023-03-15T22:36:12.471Z,37.43
2023-03-15T22:38:40.992Z,43.03
2023-03-15T22:41:14.210Z,42.17
2023-03-15T22:43:43.135Z,44.73
2023-03-15T22:46:11.903Z,42.20
2023-03-15T22:48:40.585Z,41.27
2023-03-15T22:51:10.927Z,42.13
2023-03-15T22:53:39.572Z,41.27
2023-03-15T22:56:08.280Z,46.23
2023-03-15T22:58:38.433Z,48.60
2023-03-15T23:01:07.186Z,46.67
2023-03-15T23:03:35.799Z,46.83
2023-03-15T23:06:04.491Z,44.73
2023-03-15T23:08:33.333Z,44.60
2023-03-15T23:11:02.153Z,42.87
2023-03-15T23:13:31.332Z,42.47
2023-03-15T23:16:04.176Z,44.03
2023-03-15T23:18:34.461Z,43.07
2023-03-15T23:21:08.036Z,42.90
2023-03-15T23:23:37.112Z,43.20
2023-03-15T23:26:06.081Z,43.50
2023-03-15T23:28:35.044Z,55.13
2023-03-15T23:31:07.530Z,55.87
2023-03-15T23:33:36.223Z,48.63
2023-03-15T23:36:07.102Z,37.30
2023-03-15T23:38:35.852Z,45.73
2023-03-15T23:41:05.161Z,57.37
2023-03-15T23:43:34.614Z,58.63
2023-03-15T23:46:06.460Z,42.73
2023-03-15T23:48:36.327Z,50.80
2023-03-15T23:51:05.219Z,48.80
2023-03-15T23:53:34.106Z,44.77
2023-03-15T23:56:03.055Z,43.70
2023-03-15T23:58:31.630Z,52.17
